Montgomery City, Missouri
Current Conditions -  °F | °C
As of 1:35 PM on Sunday 23 Nov 2014 (Local Time) from KFYG Reporting Station
Light Rain Light Rain  
Wind Chill: 55°   Ceiling: 900
Heat Index: 55°   Visibility: 2mi
Dew Point: 54°   Wind: 8mph
Humidity: 94%   Direction: 130°SE
Pressure: 29.4"   Gusts: NA
Location:  38.98°N, 91.5°W
Report Text: KFYG 231935Z AUTO 13007KT 2SM -RA BKN009 BKN035 13/12 A2940 RMK AO2 P0001
Loading
Personal Weather Stations






























Interactive Weather Map New forecast layout! Learn more

10-Day Weather Forecast

Advertisements
Track Severe Weather on mobile